Time;durP1;ratioP1;P1;durP2;ratioP2;P2;SDS_P1;SDS_P2;PMS_P1;PMS_P2;Temp;Humidity;BMP_temperature;BMP_pressure;BME280_temperature;BME280_humidity;BME280_pressure;Samples;Min_cycle;Max_cycle;Signal;HPM_P1;HPM_P2
2021/11/02 00:01:03;;;;;;;66.07;47.85;;;;;;;4.97;96.42;99656.00;1740203;82;20971;-73
2021/11/02 00:03:32;;;;;;;57.55;41.90;;;;;;;4.98;96.71;99660.30;1725283;81;21055;-71
2021/11/02 00:05:58;;;;;;;65.00;50.60;;;;;;;4.98;96.87;99650.97;1710001;83;21051;-73
2021/11/02 00:08:26;;;;;;;65.37;46.80;;;;;;;5.02;96.88;99652.17;1724008;81;20996;-72
2021/11/02 00:10:52;;;;;;;62.13;44.63;;;;;;;5.08;96.98;99651.33;1765984;81;21076;-72
2021/11/02 00:13:29;;;;;;;68.02;48.28;;;;;;;5.18;96.92;99648.19;1719515;82;21558;-72
2021/11/02 00:16:02;;;;;;;64.45;46.13;;;;;;;5.19;96.53;99651.95;1732084;81;20983;-72
2021/11/02 00:18:30;;;;;;;58.08;41.30;;;;;;;5.22;96.33;99655.53;1738253;81;20916;-73
2021/11/02 00:21:00;;;;;;;57.85;41.83;;;;;;;5.27;96.21;99650.34;1738223;81;21020;-72
2021/11/02 00:23:36;;;;;;;62.38;45.95;;;;;;;5.32;96.08;99651.05;1746251;81;22460;-72
2021/11/02 00:25:59;;;;;;;65.30;45.15;;;;;;;5.31;95.77;99649.92;1738612;82;20992;-71
2021/11/02 00:28:25;;;;;;;55.00;36.33;;;;;;;5.30;95.75;99646.44;1738044;82;21022;-72
2021/11/02 00:30:52;;;;;;;57.15;43.15;;;;;;;5.31;95.68;99644.08;1733161;82;21111;-71
2021/11/02 00:33:18;;;;;;;62.05;43.20;;;;;;;5.28;95.45;99643.16;1742923;81;21045;-70
2021/11/02 00:35:45;;;;;;;59.75;42.48;;;;;;;5.30;95.48;99631.77;1713560;81;21034;-69
2021/11/02 00:38:12;;;;;;;58.05;45.60;;;;;;;5.33;95.47;99634.51;1711666;82;21273;-70
2021/11/02 00:40:40;;;;;;;59.10;41.37;;;;;;;5.31;95.32;99636.08;1705194;82;21479;-68
2021/11/02 00:43:09;;;;;;;58.68;40.55;;;;;;;5.35;95.25;99631.94;1765844;81;21563;-69
2021/11/02 00:45:37;;;;;;;49.75;38.83;;;;;;;5.33;95.04;99624.66;1766935;81;21040;-68
2021/11/02 00:48:12;;;;;;;58.00;42.55;;;;;;;5.32;95.04;99632.39;1740252;81;21903;-69
2021/11/02 00:50:43;;;;;;;56.92;38.45;;;;;;;5.33;95.05;99621.17;1756845;80;21568;-68
2021/11/02 00:53:11;;;;;;;52.98;38.28;;;;;;;5.41;95.20;99627.08;1737065;81;21028;-67
2021/11/02 00:55:37;;;;;;;59.25;40.30;;;;;;;5.45;94.78;99627.45;1736313;82;21594;-68
2021/11/02 00:58:05;;;;;;;58.10;38.10;;;;;;;5.41;94.52;99623.59;1736479;81;22319;-69
2021/11/02 01:00:34;;;;;;;51.45;40.17;;;;;;;5.46;94.63;99633.91;1744076;81;21102;-70
2021/11/02 01:03:01;;;;;;;51.83;39.90;;;;;;;5.51;94.55;99625.25;1766887;80;20976;-70
2021/11/02 01:05:29;;;;;;;48.58;34.95;;;;;;;5.58;94.52;99622.00;1752727;80;20996;-68
2021/11/02 01:07:55;;;;;;;48.15;39.27;;;;;;;5.63;94.36;99617.64;1748871;81;21594;-68
2021/11/02 01:10:24;;;;;;;57.93;41.25;;;;;;;5.61;93.72;99623.70;1735321;82;21008;-68
2021/11/02 01:12:52;;;;;;;64.12;43.98;;;;;;;5.59;93.67;99626.30;1734576;82;21368;-69
2021/11/02 01:15:27;;;;;;;65.60;41.33;;;;;;;5.57;93.46;99628.36;1711735;82;21198;-67
2021/11/02 01:17:55;;;;;;;53.17;39.50;;;;;;;5.54;93.38;99632.30;1704250;83;21025;-69
2021/11/02 01:20:22;;;;;;;57.05;41.77;;;;;;;5.56;93.59;99628.08;1736260;82;20961;-68
2021/11/02 01:22:49;;;;;;;64.55;42.80;;;;;;;5.57;93.63;99635.02;1736341;81;21013;-68
2021/11/02 01:25:15;;;;;;;56.05;38.88;;;;;;;5.61;93.66;99631.70;1730541;81;20986;-68
2021/11/02 01:27:42;;;;;;;49.23;37.13;;;;;;;5.66;93.52;99624.38;1650371;85;21048;-69
2021/11/02 01:30:12;;;;;;;59.35;40.45;;;;;;;5.65;93.26;99626.25;1695058;84;20948;-68
2021/11/02 01:32:39;;;;;;;48.48;37.58;;;;;;;5.65;93.20;99617.43;1728933;81;21555;-68
2021/11/02 01:35:06;;;;;;;54.48;37.40;;;;;;;5.69;93.35;99610.61;1731006;83;20999;-67
2021/11/02 01:37:38;;;;;;;49.05;37.35;;;;;;;5.74;93.11;99603.28;1730913;82;21008;-68
2021/11/02 01:40:08;;;;;;;53.45;39.08;;;;;;;5.74;93.03;99605.44;1732389;81;20948;-68
2021/11/02 01:42:36;;;;;;;47.83;37.45;;;;;;;5.76;93.01;99598.52;1717737;82;21007;-68
2021/11/02 01:45:05;;;;;;;52.93;40.05;;;;;;;5.76;93.03;99599.34;1734765;82;20928;-66
2021/11/02 01:47:34;;;;;;;52.20;36.83;;;;;;;5.80;92.93;99603.74;1734524;82;21027;-67
2021/11/02 01:50:01;;;;;;;50.12;37.28;;;;;;;5.77;92.79;99594.31;1694066;82;21300;-66
2021/11/02 01:52:29;;;;;;;46.05;34.95;;;;;;;5.76;92.83;99594.52;1717650;82;21015;-68
2021/11/02 01:54:56;;;;;;;48.73;37.17;;;;;;;5.79;93.10;99591.43;1714456;82;21044;-69
2021/11/02 01:57:26;;;;;;;48.35;37.03;;;;;;;5.81;93.04;99592.83;1741619;80;21017;-69
2021/11/02 01:59:53;;;;;;;56.23;41.15;;;;;;;5.82;93.03;99586.97;1720335;82;21551;-68
2021/11/02 02:02:36;;;;;;;50.17;38.05;;;;;;;5.84;93.07;99591.58;1715121;82;21116;-69
2021/11/02 02:05:25;;;;;;;62.27;39.90;;;;;;;5.90;93.06;99588.06;1732112;82;21087;-70
2021/11/02 02:08:18;;;;;;;45.73;36.10;;;;;;;5.92;92.85;99579.30;1732121;82;21039;-69
2021/11/02 02:10:59;;;;;;;56.58;39.95;;;;;;;5.93;92.71;99580.42;1705780;82;21063;-69
2021/11/02 02:13:42;;;;;;;63.63;41.75;;;;;;;5.95;92.76;99571.66;1700299;83;20999;-68
2021/11/02 02:16:40;;;;;;;57.73;39.13;;;;;;;6.00;92.81;99578.48;1704218;82;20987;-68
2021/11/02 02:19:40;;;;;;;47.78;37.08;;;;;;;6.02;92.53;99573.75;1713533;82;21529;-69
2021/11/02 02:22:44;;;;;;;60.10;40.83;;;;;;;6.01;92.53;99576.63;1740502;81;21011;-70
2021/11/02 02:25:36;;;;;;;59.08;41.23;;;;;;;5.96;92.47;99569.29;1718034;81;20930;-68
2021/11/02 02:28:23;;;;;;;52.93;40.80;;;;;;;5.97;92.89;99568.27;1754649;81;21079;-69
2021/11/02 02:31:00;;;;;;;46.40;35.17;;;;;;;6.01;93.06;99569.95;1691652;82;21229;-70
2021/11/02 02:33:31;;;;;;;57.38;42.53;;;;;;;6.01;93.02;99566.77;1697332;84;20903;-69
2021/11/02 02:35:57;;;;;;;54.33;39.85;;;;;;;5.94;93.16;99558.55;1700540;84;21123;-68
2021/11/02 02:38:25;;;;;;;58.42;41.42;;;;;;;5.87;93.34;99557.28;1727999;83;21030;-69
2021/11/02 02:40:52;;;;;;;54.08;36.85;;;;;;;5.85;93.50;99561.98;1658009;84;21050;-69
2021/11/02 02:43:21;;;;;;;56.48;40.30;;;;;;;5.88;93.81;99563.44;1706428;82;21154;-70
2021/11/02 02:45:51;;;;;;;53.38;40.48;;;;;;;5.90;93.91;99563.50;1730240;82;21521;-69
2021/11/02 02:48:21;;;;;;;65.50;43.17;;;;;;;5.88;93.95;99559.44;1707263;82;21665;-69
2021/11/02 02:50:47;;;;;;;56.18;40.73;;;;;;;5.86;94.21;99552.13;1689602;83;21013;-69
2021/11/02 02:53:15;;;;;;;65.83;44.20;;;;;;;5.88;94.41;99552.77;1704870;84;21058;-70
2021/11/02 02:55:43;;;;;;;49.30;39.18;;;;;;;5.91;94.54;99553.64;1672869;84;21559;-70
2021/11/02 02:58:10;;;;;;;61.18;43.70;;;;;;;5.92;94.85;99550.76;1729808;82;20957;-71
2021/11/02 03:00:39;;;;;;;57.80;41.65;;;;;;;5.90;95.03;99542.69;1719443;82;21042;-69
2021/11/02 03:03:07;;;;;;;52.10;40.20;;;;;;;5.92;95.35;99542.75;1713645;83;21078;-68
2021/11/02 03:05:34;;;;;;;52.05;40.05;;;;;;;5.93;95.42;99543.05;1713601;83;21113;-69
2021/11/02 03:08:04;;;;;;;62.25;41.68;;;;;;;6.05;95.86;99540.44;1687145;82;21090;-70
2021/11/02 03:10:32;;;;;;;46.40;37.13;;;;;;;6.09;95.55;99543.77;1693816;82;21538;-69
2021/11/02 03:13:04;;;;;;;57.23;41.15;;;;;;;6.13;95.62;99542.82;1717176;82;21539;-69
2021/11/02 03:15:49;;;;;;;53.42;39.33;;;;;;;6.14;95.57;99534.56;1703254;84;21091;-70
2021/11/02 03:44:08;;;;;;;48.33;37.50;;;;;;;6.23;97.76;99527.59;1758278;80;20958;-69
2021/11/02 04:22:31;;;;;;;45.10;34.27;;;;;;;6.43;98.90;99516.10;1653981;84;21018;-69
2021/11/02 04:24:54;;;;;;;42.35;28.15;;;;;;;6.46;99.46;99482.28;1761054;81;21097;-71
2021/11/02 04:27:32;;;;;;;51.53;32.85;;;;;;;6.51;99.79;99481.07;1756999;81;21579;-70
2021/11/02 04:35:22;;;;;;;45.67;33.10;;;;;;;6.53;99.49;99477.11;1758034;81;20986;-70
2021/11/02 05:07:32;;;;;;;39.98;28.10;;;;;;;6.49;100.00;99476.47;1738290;81;20999;-71
2021/11/02 05:53:43;;;;;;;38.88;28.90;;;;;;;6.51;100.00;99449.02;1764129;81;20995;-69
2021/11/02 05:58:48;;;;;;;46.63;33.55;;;;;;;6.56;100.00;99448.62;1780136;80;21052;-69
2021/11/02 06:01:26;;;;;;;42.50;32.15;;;;;;;6.59;100.00;99443.33;1763936;80;21046;-70
2021/11/02 06:04:00;;;;;;;48.10;31.00;;;;;;;6.65;100.00;99440.27;1760455;81;21118;-68
2021/11/02 06:06:36;;;;;;;42.45;30.40;;;;;;;6.62;100.00;99442.86;1756393;81;21506;-69
2021/11/02 06:09:15;;;;;;;50.12;32.25;;;;;;;6.67;100.00;99448.84;1717431;81;20995;-70
2021/11/02 06:28:34;;;;;;;54.27;38.10;;;;;;;6.66;100.00;99461.42;1737617;81;21401;-69
2021/11/02 06:31:07;;;;;;;62.43;36.70;;;;;;;6.69;100.00;99461.47;1715946;82;21872;-68
2021/11/02 06:33:40;;;;;;;45.20;32.40;;;;;;;6.72;100.00;99466.34;1711891;82;20987;-68
2021/11/02 06:36:10;;;;;;;49.65;36.48;;;;;;;6.73;100.00;99467.97;1725131;82;21497;-68
2021/11/02 06:38:57;;;;;;;51.13;36.88;;;;;;;6.74;100.00;99465.08;1704685;82;21040;-68
2021/11/02 06:49:05;;;;;;;45.45;32.65;;;;;;;6.90;100.00;99464.41;1748346;82;21033;-70
2021/11/02 07:19:43;;;;;;;48.65;32.53;;;;;;;7.01;100.00;99464.92;1723506;82;21052;-68
2021/11/02 07:28:01;;;;;;;51.30;37.35;;;;;;;7.08;100.00;99458.66;1779883;80;20959;-69
2021/11/02 08:45:55;;;;;;;40.17;27.77;;;;;;;7.27;100.00;99390.61;1721056;82;21048;-70
2021/11/02 08:48:12;;;;;;;40.55;28.35;;;;;;;7.31;100.00;99397.93;1738031;81;21064;-73
2021/11/02 08:50:49;;;;;;;32.33;24.65;;;;;;;7.31;100.00;99394.44;1714382;83;21496;-73
2021/11/02 08:53:12;;;;;;;41.20;28.10;;;;;;;7.33;100.00;99385.67;1716637;82;21505;-73
2021/11/02 08:55:41;;;;;;;38.55;27.27;;;;;;;7.32;100.00;99384.84;1784707;80;21051;-76
2021/11/02 08:58:07;;;;;;;36.60;25.62;;;;;;;7.34;100.00;99381.92;1784726;80;21087;-71
2021/11/02 09:00:34;;;;;;;35.90;26.97;;;;;;;7.36;100.00;99379.83;1742830;81;21966;-73
2021/11/02 09:03:15;;;;;;;34.67;24.85;;;;;;;7.37;100.00;99373.44;1707294;83;21604;-72
2021/11/02 09:05:43;;;;;;;35.65;26.65;;;;;;;7.40;100.00;99372.95;1739591;81;20979;-72
2021/11/02 09:08:10;;;;;;;27.55;22.67;;;;;;;7.40;100.00;99362.25;1757060;81;21048;-71
2021/11/02 09:10:40;;;;;;;27.90;21.60;;;;;;;7.45;100.00;99361.02;1726396;83;21051;-71
2021/11/02 09:13:09;;;;;;;26.97;21.07;;;;;;;7.47;100.00;99360.27;1721087;83;21143;-72
2021/11/02 09:15:37;;;;;;;25.77;19.27;;;;;;;7.50;100.00;99362.98;1749431;81;21050;-74
2021/11/02 09:18:09;;;;;;;27.05;22.15;;;;;;;7.51;100.00;99352.58;1757049;81;21074;-74
2021/11/02 09:20:36;;;;;;;29.07;20.92;;;;;;;7.52;100.00;99351.53;1717951;82;21509;-75
2021/11/02 09:23:04;;;;;;;32.93;25.48;;;;;;;7.57;100.00;99345.75;1729120;82;21536;-74
2021/11/02 09:25:33;;;;;;;25.35;21.95;;;;;;;7.65;100.00;99340.53;1739473;82;21062;-72
2021/11/02 09:28:00;;;;;;;22.82;18.62;;;;;;;7.66;100.00;99332.80;1723433;82;21056;-76
2021/11/02 09:30:27;;;;;;;26.02;20.30;;;;;;;7.62;100.00;99324.97;1746635;82;21043;-75
2021/11/02 09:32:55;;;;;;;27.95;21.82;;;;;;;7.62;100.00;99321.77;1740528;81;21362;-72
2021/11/02 09:35:26;;;;;;;30.08;18.42;;;;;;;7.68;100.00;99318.11;1714703;83;21110;-74
2021/11/02 09:38:11;;;;;;;29.80;22.00;;;;;;;7.72;100.00;99320.58;1723825;83;21189;-74
2021/11/02 09:40:48;;;;;;;28.65;20.97;;;;;;;7.73;100.00;99320.88;1734466;82;21069;-75
2021/11/02 09:43:53;;;;;;;23.95;17.82;;;;;;;7.81;100.00;99314.34;1734949;81;20966;-75
2021/11/02 09:46:44;;;;;;;28.05;18.27;;;;;;;7.87;100.00;99312.83;1734315;82;20936;-75
2021/11/02 09:49:49;;;;;;;20.30;16.20;;;;;;;7.91;100.00;99304.33;1735468;80;21306;-75
2021/11/02 09:52:57;;;;;;;22.55;16.23;;;;;;;7.96;100.00;99293.71;1706058;83;21163;-72
2021/11/02 09:55:53;;;;;;;22.95;18.37;;;;;;;7.94;100.00;99293.13;1698039;82;21098;-73
2021/11/02 09:59:01;;;;;;;20.77;16.52;;;;;;;7.94;100.00;99288.59;1750430;82;21043;-73
2021/11/02 10:01:50;;;;;;;23.12;19.05;;;;;;;7.96;100.00;99283.00;1733645;82;21052;-73
2021/11/02 10:04:55;;;;;;;20.20;16.15;;;;;;;7.90;100.00;99276.75;1704631;80;21079;-74
2021/11/02 10:07:49;;;;;;;20.30;14.38;;;;;;;7.92;100.00;99272.47;1735241;82;21806;-73
2021/11/02 10:10:25;;;;;;;24.15;17.12;;;;;;;7.95;100.00;99265.30;1716560;82;21542;-75
2021/11/02 10:13:02;;;;;;;17.73;14.20;;;;;;;7.95;100.00;99259.95;1735447;80;21536;-75
2021/11/02 10:16:03;;;;;;;24.72;18.10;;;;;;;8.00;100.00;99260.03;1734844;82;21003;-73
2021/11/02 10:18:48;;;;;;;18.85;14.05;;;;;;;7.98;100.00;99254.09;1711531;81;21053;-73
2021/11/02 10:21:52;;;;;;;16.95;13.68;;;;;;;7.99;100.00;99250.38;1715600;82;21157;-73
2021/11/02 10:25:01;;;;;;;19.87;15.13;;;;;;;7.99;100.00;99240.47;1716537;83;21001;-73
2021/11/02 10:27:38;;;;;;;27.40;16.65;;;;;;;7.97;100.00;99237.73;1727360;81;21010;-75
2021/11/02 10:30:33;;;;;;;31.95;20.55;;;;;;;7.97;100.00;99237.22;1706244;84;21070;-73
2021/11/02 10:33:13;;;;;;;25.20;16.90;;;;;;;7.98;100.00;99233.49;1706066;83;21039;-75
2021/11/02 10:36:25;;;;;;;22.45;15.83;;;;;;;8.02;100.00;99219.08;1706297;83;21079;-73
2021/11/02 10:39:22;;;;;;;25.12;14.78;;;;;;;8.04;100.00;99221.81;1689458;84;21524;-73
2021/11/02 10:42:31;;;;;;;24.90;15.38;;;;;;;8.05;100.00;99218.08;1705889;83;21059;-72
2021/11/02 10:45:01;;;;;;;20.55;14.13;;;;;;;8.10;100.00;99214.14;1717475;81;21547;-71
2021/11/02 10:47:32;;;;;;;19.98;17.23;;;;;;;8.16;100.00;99215.81;1715426;82;21010;-72
2021/11/02 10:50:04;;;;;;;21.75;15.75;;;;;;;8.20;100.00;99211.58;1683360;82;21065;-71
2021/11/02 10:52:32;;;;;;;21.17;16.23;;;;;;;8.21;100.00;99203.02;1710836;82;21075;-73
2021/11/02 10:55:19;;;;;;;21.87;15.65;;;;;;;8.21;100.00;99197.14;1698999;82;21031;-75
2021/11/02 10:58:16;;;;;;;20.95;14.85;;;;;;;8.27;100.00;99190.80;1713768;82;21063;-75
2021/11/02 11:00:42;;;;;;;20.90;15.32;;;;;;;8.29;100.00;99186.05;1735575;82;20952;-76
2021/11/02 11:03:10;;;;;;;18.30;14.05;;;;;;;8.27;100.00;99189.47;1736128;81;21434;-75
2021/11/02 11:05:38;;;;;;;24.70;15.70;;;;;;;8.24;100.00;99185.95;1743559;81;21015;-80
2021/11/02 11:08:05;;;;;;;24.75;14.93;;;;;;;8.23;100.00;99179.49;1732798;82;20971;-79
2021/11/02 11:10:33;;;;;;;26.73;18.77;;;;;;;8.24;100.00;99174.42;1735244;82;21545;-80
2021/11/02 11:13:02;;;;;;;19.65;16.32;;;;;;;8.25;100.00;99170.66;1768754;80;20948;-77
2021/11/02 11:15:34;;;;;;;22.80;16.02;;;;;;;8.27;100.00;99165.88;1765445;80;21230;-82
2021/11/02 11:18:06;;;;;;;20.20;15.45;;;;;;;8.30;100.00;99168.08;1742821;82;21005;-76
2021/11/02 11:20:39;;;;;;;19.57;13.85;;;;;;;8.29;100.00;99155.74;1714337;82;20946;-80
2021/11/02 11:23:10;;;;;;;18.75;15.83;;;;;;;8.31;100.00;99153.11;1704751;82;20995;-78
2021/11/02 11:25:51;;;;;;;14.83;12.07;;;;;;;8.28;100.00;99146.08;1721214;81;21200;-78
2021/11/02 11:28:19;;;;;;;20.37;15.43;;;;;;;8.27;100.00;99141.77;1751131;81;21094;-78
2021/11/02 11:30:48;;;;;;;18.98;15.20;;;;;;;8.30;100.00;99142.63;1739678;81;20976;-74
2021/11/02 11:33:18;;;;;;;15.85;13.88;;;;;;;8.35;100.00;99133.84;1735000;81;21095;-74
2021/11/02 11:35:44;;;;;;;15.35;12.82;;;;;;;8.36;100.00;99132.27;1707940;82;21068;-73
2021/11/02 11:38:15;;;;;;;23.15;15.78;;;;;;;8.39;100.00;99128.30;1734385;82;21034;-74
2021/11/02 11:40:43;;;;;;;18.52;14.65;;;;;;;8.37;100.00;99134.42;1735108;82;21128;-73
2021/11/02 11:43:11;;;;;;;19.32;14.93;;;;;;;8.34;100.00;99124.22;1727691;80;21019;-72
2021/11/02 11:45:42;;;;;;;16.77;14.28;;;;;;;8.31;100.00;99124.98;1688002;84;21607;-78
2021/11/02 11:48:15;;;;;;;17.82;14.68;;;;;;;8.35;100.00;99115.09;1721659;82;20994;-76
2021/11/02 11:50:42;;;;;;;18.87;14.75;;;;;;;8.39;100.00;99118.92;1750001;82;21077;-79
2021/11/02 11:53:09;;;;;;;20.45;15.32;;;;;;;8.38;100.00;99112.75;1724968;82;21010;-84
2021/11/02 11:55:41;;;;;;;19.55;13.85;;;;;;;8.37;100.00;99112.98;1745904;82;20991;-81
2021/11/02 11:58:14;;;;;;;19.12;14.28;;;;;;;8.38;100.00;99110.07;1703366;81;21077;-77
2021/11/02 12:00:48;;;;;;;16.30;13.40;;;;;;;8.41;100.00;99113.58;1753487;81;21067;-76
2021/11/02 12:03:34;;;;;;;18.60;12.50;;;;;;;8.46;100.00;99112.83;1751549;81;21176;-79
2021/11/02 12:06:21;;;;;;;22.85;17.70;;;;;;;8.43;100.00;99110.66;1674041;82;21253;-77
2021/11/02 12:09:20;;;;;;;20.17;14.45;;;;;;;8.43;100.00;99108.80;1721689;81;20945;-78
2021/11/02 12:11:48;;;;;;;22.48;15.80;;;;;;;8.47;100.00;99109.09;1715178;82;21022;-78
2021/11/02 12:14:24;;;;;;;21.73;17.62;;;;;;;8.49;100.00;99113.12;1712792;80;21023;-77
2021/11/02 12:16:52;;;;;;;17.27;15.10;;;;;;;8.48;100.00;99115.55;1702567;84;21059;-85
2021/11/02 12:19:25;;;;;;;20.68;15.28;;;;;;;8.48;100.00;99116.89;1713704;82;21017;-85
2021/11/02 12:22:06;;;;;;;19.60;12.50;;;;;;;8.47;100.00;99110.44;1749630;82;21535;-78
2021/11/02 12:24:37;;;;;;;18.42;11.93;;;;;;;8.46;100.00;99114.98;1725021;82;20903;-79
2021/11/02 12:27:20;;;;;;;18.27;13.22;;;;;;;8.48;100.00;99113.41;1716227;82;20996;-76
2021/11/02 12:29:51;;;;;;;19.10;13.70;;;;;;;8.46;100.00;99112.83;1746615;81;21101;-76
2021/11/02 12:32:21;;;;;;;16.52;11.57;;;;;;;8.41;100.00;99112.77;1725666;82;21001;-87
2021/11/02 12:34:57;;;;;;;17.02;12.55;;;;;;;8.42;100.00;99111.19;1764760;80;20987;-78
2021/11/02 12:37:25;;;;;;;17.82;13.18;;;;;;;8.47;100.00;99106.41;1762648;81;20985;-78
2021/11/02 12:39:51;;;;;;;19.73;13.98;;;;;;;8.50;100.00;99112.08;1746410;81;20987;-76
2021/11/02 12:42:23;;;;;;;21.77;14.07;;;;;;;8.56;100.00;99102.23;1761883;81;21503;-81
2021/11/02 12:44:49;;;;;;;24.72;15.68;;;;;;;8.60;100.00;99098.80;1755114;81;21225;-81
2021/11/02 12:47:19;;;;;;;15.80;13.28;;;;;;;8.60;100.00;99094.77;1738661;81;20980;-77
2021/11/02 12:49:52;;;;;;;18.12;12.28;;;;;;;8.66;100.00;99099.14;1759906;81;20978;-83
2021/11/02 12:52:24;;;;;;;19.80;14.58;;;;;;;8.66;100.00;99093.78;1711121;83;21012;-92
2021/11/02 12:55:12;;;;;;;21.25;13.40;;;;;;;8.60;100.00;99092.09;1720536;81;20999;-89
2021/11/02 12:57:42;;;;;;;22.00;14.95;;;;;;;8.60;100.00;99086.73;1741185;82;21634;-80
2021/11/02 13:00:12;;;;;;;19.60;15.05;;;;;;;8.67;100.00;99091.91;1740364;82;21047;-79
2021/11/02 13:02:43;;;;;;;19.10;13.85;;;;;;;8.70;100.00;99090.87;1743938;81;21035;-76
2021/11/02 13:05:22;;;;;;;18.80;14.73;;;;;;;8.64;100.00;99080.33;1743701;81;21011;-79
2021/11/02 13:08:06;;;;;;;30.88;17.40;;;;;;;8.62;100.00;99081.94;1734770;81;21019;-79
2021/11/02 13:10:35;;;;;;;22.07;15.10;;;;;;;8.61;100.00;99073.62;1712413;83;21359;-77
2021/11/02 13:13:11;;;;;;;25.08;17.57;;;;;;;8.66;100.00;99082.24;1697943;83;21047;-76
2021/11/02 13:15:57;;;;;;;21.17;16.02;;;;;;;8.63;100.00;99066.12;1741884;81;20900;-80
2021/11/02 13:18:37;;;;;;;23.57;16.00;;;;;;;8.60;100.00;99069.31;1740464;81;21079;-79
2021/11/02 13:21:31;;;;;;;20.85;15.30;;;;;;;8.54;100.00;99059.59;1764607;81;21027;-78
2021/11/02 13:24:19;;;;;;;26.15;15.63;;;;;;;8.57;100.00;99055.61;1723023;81;21050;-80
2021/11/02 13:26:50;;;;;;;21.23;16.07;;;;;;;8.56;100.00;99058.01;1766980;79;21019;-84
2021/11/02 13:29:21;;;;;;;24.02;16.00;;;;;;;8.55;100.00;99049.69;1764265;79;21574;-82
2021/11/02 13:31:49;;;;;;;24.27;17.10;;;;;;;8.62;100.00;99050.31;1760127;81;20989;-81
2021/11/02 13:34:19;;;;;;;24.65;16.48;;;;;;;8.63;100.00;99043.33;1749744;81;21464;-73
2021/11/02 13:36:46;;;;;;;23.35;15.58;;;;;;;8.66;100.00;99045.53;1743264;80;21851;-75
2021/11/02 13:39:14;;;;;;;25.70;16.15;;;;;;;8.69;100.00;99053.05;1759641;80;20943;-83
2021/11/02 13:41:49;;;;;;;26.45;18.73;;;;;;;8.72;100.00;99043.19;1755585;81;21015;-89
2021/11/02 13:44:17;;;;;;;24.63;16.62;;;;;;;8.74;100.00;99045.59;1756854;81;21057;-82
2021/11/02 13:46:49;;;;;;;30.57;23.67;;;;;;;8.76;100.00;99044.81;1756566;81;21013;-95
2021/11/02 13:49:17;;;;;;;29.70;19.98;;;;;;;8.73;100.00;99052.00;1744859;81;21811;-93
2021/11/02 13:51:43;;;;;;;28.85;21.05;;;;;;;8.73;100.00;99043.96;1743491;82;21918;-93
2021/11/02 13:54:11;;;;;;;35.90;21.60;;;;;;;8.73;100.00;99042.09;1744878;80;21011;-89
2021/11/02 13:56:41;;;;;;;31.90;20.43;;;;;;;8.76;100.00;99038.11;1738092;81;21033;-90
2021/11/02 13:59:09;;;;;;;30.12;21.57;;;;;;;8.74;100.00;99035.67;1763876;80;21811;-92
2021/11/02 14:01:48;;;;;;;37.23;23.70;;;;;;;8.74;100.00;99030.84;1736230;81;21182;-80
2021/11/02 14:04:38;;;;;;;36.10;23.52;;;;;;;8.80;100.00;99028.50;1762136;81;21033;-76
2021/11/02 14:07:17;;;;;;;31.30;20.57;;;;;;;8.86;100.00;99026.67;1711489;81;20994;-78
2021/11/02 14:10:05;;;;;;;34.15;21.65;;;;;;;8.88;100.00;99025.87;1763149;81;20985;-80
2021/11/02 14:12:52;;;;;;;33.55;21.50;;;;;;;8.89;100.00;99025.63;1751473;81;20966;-78
2021/11/02 14:15:19;;;;;;;38.48;22.70;;;;;;;8.85;100.00;99023.70;1748123;81;21580;-76
2021/11/02 14:18:05;;;;;;;44.25;28.67;;;;;;;8.86;100.00;99020.78;1693190;82;20982;-79
2021/11/02 14:20:49;;;;;;;45.98;26.05;;;;;;;8.88;100.00;99019.98;1733658;81;20999;-74
2021/11/02 14:23:41;;;;;;;40.98;25.32;;;;;;;8.97;100.00;99020.34;1737988;81;20979;-74
2021/11/02 14:26:26;;;;;;;40.45;25.23;;;;;;;8.92;100.00;99018.96;1728334;82;21111;-75
2021/11/02 14:29:02;;;;;;;35.52;24.43;;;;;;;8.88;100.00;99011.94;1707147;81;21815;-78
2021/11/02 14:31:43;;;;;;;37.08;24.47;;;;;;;8.94;100.00;99015.47;1710859;81;20945;-84
2021/11/02 14:34:14;;;;;;;37.30;26.07;;;;;;;8.98;100.00;99018.73;1739010;81;20940;-85
2021/11/02 14:36:44;;;;;;;37.48;25.32;;;;;;;8.98;100.00;99013.89;1715559;82;21050;-77
2021/11/02 14:39:12;;;;;;;27.77;20.17;;;;;;;8.99;100.00;99016.86;1753013;81;21003;-82
2021/11/02 14:41:48;;;;;;;34.08;23.00;;;;;;;8.99;100.00;99015.52;1760833;80;21151;-79
2021/11/02 14:44:24;;;;;;;39.10;22.10;;;;;;;8.92;100.00;99009.58;1734800;81;21019;-84
2021/11/02 14:46:53;;;;;;;35.28;22.10;;;;;;;8.89;100.00;99010.06;1726270;82;20987;-78
2021/11/02 14:49:36;;;;;;;33.60;22.45;;;;;;;8.87;100.00;99005.51;1777280;80;21042;-83
2021/11/02 14:52:07;;;;;;;30.02;20.82;;;;;;;8.87;100.00;99012.21;1753172;81;20997;-81
2021/11/02 14:54:45;;;;;;;35.48;22.15;;;;;;;8.96;100.00;99019.53;1758127;81;21102;-81
2021/11/02 14:57:27;;;;;;;44.30;24.90;;;;;;;8.97;100.00;99017.10;1748653;81;20979;-78
2021/11/02 15:00:04;;;;;;;44.18;24.65;;;;;;;8.96;100.00;99010.67;1761467;81;21047;-76
2021/11/02 15:02:43;;;;;;;34.35;22.55;;;;;;;9.00;100.00;99017.14;1738765;82;21058;-74
2021/11/02 15:05:12;;;;;;;43.50;24.77;;;;;;;9.02;100.00;99021.17;1777234;80;21090;-78
2021/11/02 15:07:47;;;;;;;39.08;23.22;;;;;;;9.09;100.00;99011.05;1776820;80;21090;-74
2021/11/02 15:10:16;;;;;;;32.17;23.87;;;;;;;9.20;100.00;99010.59;1777093;80;20995;-85
2021/11/02 15:12:44;;;;;;;38.63;23.32;;;;;;;9.25;100.00;99015.19;1733166;80;20979;-81
2021/11/02 15:15:11;;;;;;;40.25;24.35;;;;;;;9.25;100.00;99020.03;1723070;81;21023;-80
2021/11/02 15:17:39;;;;;;;36.50;24.25;;;;;;;9.22;100.00;99012.47;1761139;81;21034;-78
2021/11/02 15:20:06;;;;;;;38.17;26.77;;;;;;;9.26;100.00;99020.28;1736147;81;21064;-82
2021/11/02 15:22:33;;;;;;;35.58;26.62;;;;;;;9.28;100.00;99013.33;1734804;81;21512;-76
2021/11/02 15:25:02;;;;;;;25.57;19.50;;;;;;;9.28;100.00;99011.98;1759963;81;20995;-76
2021/11/02 15:27:36;;;;;;;33.55;22.00;;;;;;;9.29;100.00;99013.61;1748801;81;21043;-75
2021/11/02 15:30:11;;;;;;;;;;;;;;;9.26;100.00;99010.89;1755627;80;21062;-79
2021/11/02 15:32:39;;;;;;;34.67;23.47;;;;;;;9.25;100.00;99009.83;1745668;81;21726;-82
2021/11/02 15:35:10;;;;;;;34.00;23.00;;;;;;;9.19;100.00;99017.02;1758201;81;21090;-83
2021/11/02 15:37:41;;;;;;;35.33;23.32;;;;;;;9.19;100.00;99010.31;1733613;81;21523;-82
2021/11/02 15:40:13;;;;;;;44.77;26.85;;;;;;;9.19;100.00;99015.68;1758371;81;21002;-87
2021/11/02 15:42:47;;;;;;;32.20;21.30;;;;;;;9.15;100.00;99012.71;1763905;80;21193;-88
2021/11/02 15:45:32;;;;;;;40.05;25.02;;;;;;;9.20;100.00;99015.97;1715973;82;21160;-81
2021/11/02 15:48:11;;;;;;;28.12;18.42;;;;;;;9.16;100.00;99014.84;1741750;82;21078;-84
2021/11/02 15:50:45;;;;;;;37.42;24.32;;;;;;;9.21;100.00;99010.07;1716337;82;21633;-93
2021/11/02 15:53:12;;;;;;;26.93;19.90;;;;;;;9.24;100.00;99010.35;1718673;82;21030;-91
2021/11/02 15:55:39;;;;;;;34.00;21.75;;;;;;;9.29;100.00;99010.92;1699301;83;21012;-84
2021/11/02 15:58:08;;;;;;;30.85;21.55;;;;;;;9.28;100.00;99012.79;1755792;81;21157;-89
2021/11/02 16:00:43;;;;;;;25.92;18.75;;;;;;;9.26;100.00;99016.25;1735530;81;21033;-76
2021/11/02 16:03:14;;;;;;;24.77;18.27;;;;;;;9.26;100.00;99013.57;1694920;83;20982;-89
2021/11/02 16:05:43;;;;;;;24.27;17.65;;;;;;;9.27;100.00;99013.04;1724026;82;20866;-83
2021/11/02 16:08:20;;;;;;;30.82;20.37;;;;;;;9.31;100.00;99012.27;1749439;82;20985;-82
2021/11/02 16:10:51;;;;;;;27.32;21.45;;;;;;;9.33;100.00;99010.67;1699803;82;21137;-81
2021/11/02 16:13:25;;;;;;;25.72;20.52;;;;;;;9.32;100.00;99000.47;1760707;80;20904;-81
2021/11/02 16:15:52;;;;;;;28.35;20.57;;;;;;;9.34;100.00;99005.06;1712922;81;20904;-77
2021/11/02 16:18:24;;;;;;;28.60;19.82;;;;;;;9.37;100.00;99011.24;1761586;81;20972;-77
2021/11/02 16:20:56;;;;;;;34.63;21.23;;;;;;;9.39;100.00;99009.66;1761521;81;21090;-81
2021/11/02 16:23:28;;;;;;;24.67;18.82;;;;;;;9.40;100.00;99008.59;1747757;81;21169;-81
2021/11/02 16:26:01;;;;;;;33.42;23.42;;;;;;;9.48;100.00;99006.22;1753983;81;21030;-84
2021/11/02 16:28:31;;;;;;;28.60;20.08;;;;;;;9.48;100.00;99010.78;1704669;82;21047;-83